Time;durP1;ratioP1;P1;durP2;ratioP2;P2;SDS_P1;SDS_P2;PMS_P1;PMS_P2;Temp;Humidity;BMP_temperature;BMP_pressure;BME280_temperature;BME280_humidity;BME280_pressure;Samples;Min_cycle;Max_cycle;Signal;HPM_P1;HPM_P2
2022/01/16 00:00:40;;;;;;;11.35;10.20;;;17.70;53.80;;;;;;5051402;28;20175;-61
2022/01/16 00:05:53;;;;;;;10.35;9.35;;;17.70;53.80;;;;;;5051855;28;20222;-61
2022/01/16 00:08:19;;;;;;;10.40;9.40;;;17.60;53.80;;;;;;5052322;28;20178;-61
2022/01/16 00:10:44;;;;;;;10.98;9.98;;;17.60;53.80;;;;;;5052140;28;20186;-62
2022/01/16 00:13:10;;;;;;;11.50;10.32;;;17.60;53.80;;;;;;5051234;28;20199;-66
2022/01/16 00:15:36;;;;;;;10.55;9.55;;;17.60;53.80;;;;;;5052152;28;20193;-63
2022/01/16 00:20:29;;;;;;;10.20;9.30;;;17.60;53.90;;;;;;5051305;28;20174;-61
2022/01/16 00:22:56;;;;;;;10.95;9.85;;;17.60;53.80;;;;;;5052059;28;20183;-61
2022/01/16 00:25:21;;;;;;;11.95;10.75;;;17.50;53.70;;;;;;5051808;28;20199;-61
2022/01/16 00:27:47;;;;;;;10.98;9.98;;;17.50;53.80;;;;;;5051583;28;20211;-62
2022/01/16 00:30:13;;;;;;;10.80;9.80;;;17.50;53.70;;;;;;5052139;28;20631;-63
2022/01/16 00:32:41;;;;;;;11.65;10.45;;;17.50;53.80;;;;;;5051925;28;20234;-61
2022/01/16 00:35:07;;;;;;;11.55;10.45;;;17.50;53.70;;;;;;5051593;28;20258;-61
2022/01/16 00:37:32;;;;;;;10.57;9.57;;;17.50;53.70;;;;;;5051744;28;20206;-61
2022/01/16 00:39:58;;;;;;;12.20;11.02;;;17.50;53.70;;;;;;5052063;28;20174;-62
2022/01/16 00:42:23;;;;;;;11.32;10.23;;;17.40;53.60;;;;;;5050920;28;20500;-61
2022/01/16 00:44:49;;;;;;;10.95;9.95;;;17.50;53.70;;;;;;5051914;28;20171;-61
2022/01/16 00:47:14;;;;;;;11.57;10.48;;;17.40;53.60;;;;;;5052201;28;20184;-61
2022/01/16 00:49:41;;;;;;;10.75;9.73;;;17.40;53.70;;;;;;5050878;28;20227;-62
2022/01/16 00:52:07;;;;;;;11.60;10.50;;;17.40;53.70;;;;;;5051911;28;20725;-63
2022/01/16 00:54:32;;;;;;;11.20;10.10;;;17.40;53.60;;;;;;5051711;28;20179;-62
2022/01/16 00:56:58;;;;;;;11.82;10.73;;;17.40;53.70;;;;;;5051278;28;20175;-61
2022/01/16 00:59:23;;;;;;;11.73;10.73;;;17.40;53.60;;;;;;5051728;28;20695;-60
2022/01/16 01:01:49;;;;;;;12.55;11.25;;;17.30;53.60;;;;;;5051884;28;20179;-60
2022/01/16 01:04:15;;;;;;;10.88;9.82;;;17.30;53.60;;;;;;5051353;28;20179;-60
2022/01/16 01:06:40;;;;;;;12.80;11.50;;;17.30;53.50;;;;;;5051494;28;20178;-60
2022/01/16 01:09:06;;;;;;;11.70;10.50;;;17.30;53.60;;;;;;5050922;28;20179;-61
2022/01/16 01:11:31;;;;;;;13.57;12.07;;;17.30;53.50;;;;;;5051251;28;20175;-64
2022/01/16 01:16:27;;;;;;;11.98;10.80;;;17.30;53.60;;;;;;5050652;28;20167;-62
2022/01/16 01:18:53;;;;;;;12.00;10.80;;;17.20;53.40;;;;;;5051892;28;20183;-62
2022/01/16 01:21:28;;;;;;;11.32;10.18;;;17.30;53.60;;;;;;5051480;28;20205;-63
2022/01/16 01:23:55;;;;;;;12.68;11.38;;;17.20;53.40;;;;;;5050850;28;20178;-62
2022/01/16 01:26:25;;;;;;;11.70;10.60;;;17.20;53.40;;;;;;5054511;28;20171;-62
2022/01/16 01:28:51;;;;;;;12.63;11.38;;;17.20;53.50;;;;;;5055878;28;20187;-61
2022/01/16 01:31:16;;;;;;;11.73;10.52;;;17.20;53.40;;;;;;5054773;28;20175;-63
2022/01/16 01:33:42;;;;;;;13.07;11.70;;;17.20;53.40;;;;;;5054943;28;20725;-62
2022/01/16 01:36:07;;;;;;;11.18;10.15;;;17.20;53.40;;;;;;5055424;28;20610;-62
2022/01/16 01:38:33;;;;;;;12.02;10.88;;;17.20;53.40;;;;;;5054362;28;20182;-62
2022/01/16 01:40:58;;;;;;;12.20;11.00;;;17.20;53.40;;;;;;5055384;28;20587;-62
2022/01/16 01:51:25;;;;;;;11.13;10.05;;;17.10;53.40;;;;;;5054111;28;20962;-64
2022/01/16 01:53:51;;;;;;;12.57;11.27;;;17.10;53.40;;;;;;5055456;28;20219;-63
2022/01/16 01:56:17;;;;;;;11.70;10.50;;;17.10;53.40;;;;;;5055176;28;20229;-64
2022/01/16 01:58:44;;;;;;;13.13;11.70;;;17.10;53.40;;;;;;5053873;28;20183;-62
2022/01/16 02:01:09;;;;;;;11.75;10.55;;;17.10;53.40;;;;;;5054635;28;20171;-62
2022/01/16 02:06:15;;;;;;;12.13;10.93;;;17.10;53.30;;;;;;5054245;28;20610;-62
2022/01/16 02:08:44;;;;;;;12.40;11.20;;;17.00;53.40;;;;;;5053109;28;20591;-63
2022/01/16 02:11:14;;;;;;;12.32;11.13;;;17.00;53.30;;;;;;5054503;28;20190;-66
2022/01/16 02:35:49;;;;;;;12.82;11.55;;;16.90;53.20;;;;;;5046088;28;20236;-64
2022/01/16 02:38:15;;;;;;;12.60;11.38;;;16.90;53.10;;;;;;5054123;28;20175;-66
2022/01/16 02:40:51;;;;;;;13.00;11.20;;;16.90;53.10;;;;;;5052997;28;20178;-62
2022/01/16 02:43:22;;;;;;;12.10;10.90;;;16.90;53.10;;;;;;5054050;28;20257;-63
2022/01/16 02:45:58;;;;;;;11.20;10.10;;;16.90;53.20;;;;;;5053184;28;20175;-63
2022/01/16 02:48:24;;;;;;;12.65;11.35;;;16.80;53.10;;;;;;5052821;28;20276;-62
2022/01/16 02:50:50;;;;;;;13.65;12.27;;;16.90;53.20;;;;;;5053705;28;20630;-62
2022/01/16 02:53:15;;;;;;;13.32;12.02;;;16.80;53.10;;;;;;5053584;28;20272;-62
2022/01/16 02:55:43;;;;;;;11.30;10.30;;;16.80;53.10;;;;;;5052504;28;20172;-62
2022/01/16 02:58:09;;;;;;;12.85;11.57;;;16.80;53.10;;;;;;5054328;28;20224;-62
2022/01/16 03:00:34;;;;;;;12.10;10.95;;;16.80;53.10;;;;;;5053479;28;20583;-60
2022/01/16 03:03:00;;;;;;;12.30;11.10;;;16.80;53.10;;;;;;5052945;28;20249;-61
2022/01/16 03:05:25;;;;;;;12.35;10.95;;;16.80;53.10;;;;;;5053263;28;20190;-61
2022/01/16 03:07:51;;;;;;;12.10;10.98;;;16.80;53.10;;;;;;5053669;28;20194;-62
2022/01/16 03:12:50;;;;;;;11.77;10.57;;;16.70;53.10;;;;;;5053627;28;20211;-64
2022/01/16 03:15:17;;;;;;;13.13;11.73;;;16.80;53.10;;;;;;5053308;28;20187;-64
2022/01/16 03:23:07;;;;;;;11.88;10.68;;;16.70;53.00;;;;;;5052544;28;20593;-62
2022/01/16 03:25:32;;;;;;;12.15;10.95;;;16.70;53.00;;;;;;5052812;28;20649;-63
2022/01/16 03:27:58;;;;;;;12.57;11.27;;;16.70;53.00;;;;;;5053112;28;20187;-61
2022/01/16 03:30:23;;;;;;;12.25;11.05;;;16.70;53.00;;;;;;5052099;28;20178;-62
2022/01/16 03:32:49;;;;;;;11.68;10.52;;;16.70;53.00;;;;;;5052988;28;20206;-61
2022/01/16 03:35:14;;;;;;;11.27;10.18;;;16.70;53.00;;;;;;5052811;28;20171;-63
2022/01/16 03:37:40;;;;;;;11.98;10.77;;;16.70;53.00;;;;;;5051799;28;20652;-61
2022/01/16 03:40:10;;;;;;;12.07;10.80;;;16.70;53.00;;;;;;5053000;28;20270;-63
2022/01/16 03:42:38;;;;;;;12.32;10.95;;;16.60;53.00;;;;;;5052716;28;20494;-62
2022/01/16 03:45:05;;;;;;;13.00;11.70;;;16.60;52.90;;;;;;5052058;28;20645;-63
2022/01/16 03:47:30;;;;;;;11.60;10.43;;;16.60;53.00;;;;;;5051978;28;20204;-63
2022/01/16 03:49:56;;;;;;;10.98;9.93;;;16.60;53.00;;;;;;5052578;28;20290;-63
2022/01/16 03:52:21;;;;;;;11.90;10.70;;;16.60;52.90;;;;;;5051704;28;20630;-63
2022/01/16 03:54:47;;;;;;;11.43;10.18;;;16.60;52.90;;;;;;5052791;28;20195;-63
2022/01/16 03:57:12;;;;;;;11.90;10.70;;;16.60;53.00;;;;;;5052887;28;20186;-62
2022/01/16 03:59:38;;;;;;;12.30;11.10;;;16.60;52.90;;;;;;5051708;28;20186;-62
2022/01/16 04:02:04;;;;;;;10.88;9.77;;;16.60;52.90;;;;;;5052446;28;20171;-63
2022/01/16 04:04:30;;;;;;;12.57;11.27;;;16.60;52.90;;;;;;5052441;28;20178;-62
2022/01/16 04:06:55;;;;;;;11.38;10.27;;;16.60;53.00;;;;;;5051882;28;20562;-62
2022/01/16 04:09:21;;;;;;;11.85;10.65;;;16.50;52.90;;;;;;5052110;28;20666;-63
2022/01/16 04:11:55;;;;;;;11.30;10.10;;;16.50;53.00;;;;;;5051800;28;20186;-65
2022/01/16 04:15:31;;;;;;;12.20;10.90;;;16.60;53.00;;;;;;5052099;28;20293;-64
2022/01/16 04:17:17;;;;;;;12.23;10.98;;;16.50;52.90;;;;;;5052237;28;20270;-64
2022/01/16 04:19:43;;;;;;;11.90;10.70;;;16.50;53.00;;;;;;5051694;28;20179;-63
2022/01/16 04:22:08;;;;;;;11.95;10.75;;;16.50;53.00;;;;;;5052572;28;20239;-63
2022/01/16 04:24:34;;;;;;;12.23;10.95;;;16.50;53.00;;;;;;5052117;28;20171;-62
2022/01/16 04:27:00;;;;;;;11.63;10.40;;;16.50;52.90;;;;;;5051457;28;20221;-64
2022/01/16 04:29:25;;;;;;;12.43;10.85;;;16.50;52.90;;;;;;5051687;28;20179;-63
2022/01/16 04:31:51;;;;;;;11.82;10.63;;;16.50;52.90;;;;;;5052337;28;20171;-61
2022/01/16 04:34:16;;;;;;;11.38;10.23;;;16.50;53.00;;;;;;5051440;28;20206;-62
2022/01/16 04:36:42;;;;;;;11.77;10.57;;;16.50;53.00;;;;;;5052205;28;20182;-62
2022/01/16 04:39:13;;;;;;;11.88;10.68;;;16.50;53.00;;;;;;5052142;28;20179;-63
2022/01/16 04:44:23;;;;;;;11.55;10.45;;;16.50;53.00;;;;;;5051636;28;20214;-64
2022/01/16 04:46:48;;;;;;;11.82;10.63;;;16.40;52.90;;;;;;5052041;28;20290;-63
2022/01/16 04:49:14;;;;;;;12.60;11.30;;;16.40;53.00;;;;;;5051176;28;20768;-63
2022/01/16 04:51:39;;;;;;;11.50;10.32;;;16.40;53.00;;;;;;5051482;28;20183;-63
2022/01/16 04:54:05;;;;;;;11.75;10.55;;;16.40;53.00;;;;;;5051002;28;20252;-63
2022/01/16 04:56:30;;;;;;;11.00;9.73;;;16.40;53.00;;;;;;5051423;28;20167;-63
2022/01/16 04:58:56;;;;;;;11.57;10.38;;;16.40;53.00;;;;;;5051932;28;20283;-61
2022/01/16 05:01:22;;;;;;;11.70;10.48;;;16.40;53.00;;;;;;5054015;28;20266;-62
2022/01/16 05:03:47;;;;;;;11.15;10.13;;;16.40;53.00;;;;;;5056067;28;20183;-61
2022/01/16 05:06:13;;;;;;;12.35;10.60;;;16.40;53.00;;;;;;5055870;28;20588;-62
2022/01/16 05:08:38;;;;;;;12.45;11.10;;;16.40;53.00;;;;;;5054803;28;20179;-62
2022/01/16 05:11:06;;;;;;;11.40;10.25;;;16.40;53.00;;;;;;5055725;28;20695;-64
2022/01/16 05:16:35;;;;;;;11.82;10.63;;;16.40;53.00;;;;;;5055442;28;20256;-64
2022/01/16 05:16:37;;;;;;;11.90;10.57;;;16.30;52.90;;;;;;5054904;28;20175;-65
2022/01/16 05:19:11;;;;;;;12.27;10.82;;;16.40;53.00;;;;;;5055496;28;20558;-63
2022/01/16 05:21:37;;;;;;;12.18;10.95;;;16.30;53.00;;;;;;5055072;28;20646;-63
2022/01/16 05:24:06;;;;;;;11.50;10.40;;;16.30;53.00;;;;;;5054957;28;20211;-63
2022/01/16 05:26:34;;;;;;;12.10;10.82;;;16.30;53.00;;;;;;5055253;28;20254;-61
2022/01/16 05:28:59;;;;;;;11.85;10.65;;;16.30;53.00;;;;;;5055438;28;20175;-61
2022/01/16 05:31:25;;;;;;;11.88;10.65;;;16.30;53.00;;;;;;5054278;28;20211;-61
2022/01/16 05:33:50;;;;;;;13.38;11.50;;;16.30;53.00;;;;;;5055163;28;20214;-61
2022/01/16 05:36:17;;;;;;;12.50;11.20;;;16.30;53.00;;;;;;5054754;28;20171;-63
2022/01/16 05:38:42;;;;;;;11.90;10.50;;;16.30;53.10;;;;;;5053493;28;20179;-61
2022/01/16 05:41:08;;;;;;;10.93;9.82;;;16.20;53.00;;;;;;5055061;28;20167;-62
2022/01/16 05:43:33;;;;;;;11.80;10.60;;;16.30;53.00;;;;;;5054090;28;20174;-62
2022/01/16 05:45:59;;;;;;;12.02;10.77;;;16.30;53.10;;;;;;5054875;28;20176;-62
2022/01/16 05:48:26;;;;;;;11.55;10.40;;;16.30;53.10;;;;;;5054330;28;20566;-62
2022/01/16 05:50:51;;;;;;;11.52;10.43;;;16.30;53.00;;;;;;5054352;28;20508;-62
2022/01/16 05:53:17;;;;;;;10.55;9.55;;;16.30;53.10;;;;;;5054702;28;20215;-62
2022/01/16 05:55:42;;;;;;;11.55;10.35;;;16.20;53.00;;;;;;5054685;28;20186;-62
2022/01/16 05:58:08;;;;;;;11.57;10.48;;;16.20;53.00;;;;;;5053978;28;20516;-63
2022/01/16 06:00:34;;;;;;;11.65;10.55;;;16.20;53.00;;;;;;5054412;28;20203;-61
2022/01/16 06:03:00;;;;;;;10.98;9.88;;;16.20;53.00;;;;;;5054555;28;20175;-60
2022/01/16 06:05:26;;;;;;;11.52;10.43;;;16.20;53.10;;;;;;5053766;28;20274;-60
2022/01/16 06:07:58;;;;;;;10.70;9.63;;;16.20;53.70;;;;;;5054439;28;20179;-61
2022/01/16 06:10:24;;;;;;;11.45;10.32;;;16.20;53.10;;;;;;5053920;28;20183;-63
2022/01/16 06:12:51;;;;;;;11.88;10.68;;;16.20;53.00;;;;;;5053349;28;20206;-64
2022/01/16 06:15:17;;;;;;;12.07;10.93;;;16.20;53.00;;;;;;5054344;28;20178;-63
2022/01/16 06:17:43;;;;;;;11.85;10.60;;;16.20;53.00;;;;;;5054314;28;20270;-63
2022/01/16 06:20:08;;;;;;;12.23;11.02;;;16.10;53.00;;;;;;5054029;28;20194;-64
2022/01/16 06:22:34;;;;;;;11.88;10.55;;;16.20;53.00;;;;;;5054196;28;20647;-62
2022/01/16 06:24:59;;;;;;;11.60;10.48;;;16.10;53.00;;;;;;5054361;28;20179;-62
2022/01/16 06:27:25;;;;;;;14.43;11.40;;;16.10;53.00;;;;;;5053192;28;20703;-61
2022/01/16 06:29:50;;;;;;;12.95;11.10;;;16.10;53.00;;;;;;5054381;28;20228;-62
2022/01/16 06:32:18;;;;;;;12.55;11.32;;;16.10;53.00;;;;;;5054074;28;20199;-62
2022/01/16 06:34:44;;;;;;;11.95;10.75;;;16.10;53.00;;;;;;5053671;28;20175;-61
2022/01/16 06:37:09;;;;;;;12.35;11.07;;;16.10;53.00;;;;;;5054275;28;20565;-61
2022/01/16 06:39:35;;;;;;;11.85;10.65;;;16.10;53.10;;;;;;5053132;28;20171;-61
2022/01/16 06:42:00;;;;;;;12.55;10.52;;;16.10;53.10;;;;;;5054226;28;20179;-62
2022/01/16 06:44:26;;;;;;;11.98;10.75;;;16.10;53.10;;;;;;5053764;28;20198;-62
2022/01/16 06:46:51;;;;;;;12.02;10.73;;;16.10;53.10;;;;;;5053255;28;20278;-62
2022/01/16 06:49:17;;;;;;;12.25;10.82;;;16.00;53.10;;;;;;5053756;28;20712;-63
2022/01/16 06:51:42;;;;;;;11.63;10.43;;;16.00;53.00;;;;;;5053890;28;20179;-62
2022/01/16 06:54:08;;;;;;;12.30;11.00;;;16.00;53.10;;;;;;5053340;28;20218;-64
2022/01/16 06:56:33;;;;;;;12.38;11.18;;;16.00;53.10;;;;;;5053852;28;20168;-62
2022/01/16 06:58:59;;;;;;;12.73;10.95;;;16.00;53.00;;;;;;5053839;28;20171;-61
2022/01/16 07:01:26;;;;;;;12.38;11.10;;;16.00;53.00;;;;;;5052557;28;20483;-61
2022/01/16 07:03:53;;;;;;;12.88;11.57;;;16.00;53.10;;;;;;5053873;28;20205;-61
2022/01/16 07:06:19;;;;;;;12.20;10.98;;;16.00;53.10;;;;;;5053688;28;20206;-61
2022/01/16 07:08:45;;;;;;;12.27;10.98;;;16.10;53.10;;;;;;5053037;28;20206;-62
2022/01/16 07:11:11;;;;;;;13.45;12.15;;;16.10;53.10;;;;;;5053606;28;20281;-63
2022/01/16 07:13:36;;;;;;;11.57;10.38;;;16.20;53.00;;;;;;5053239;28;20294;-64
2022/01/16 07:16:02;;;;;;;11.90;10.70;;;16.20;53.10;;;;;;5052672;28;20537;-63
2022/01/16 07:18:28;;;;;;;12.40;11.10;;;16.20;53.00;;;;;;5051843;28;20183;-62
2022/01/16 07:20:53;;;;;;;11.00;9.88;;;16.30;53.20;;;;;;5053275;28;20183;-62
2022/01/16 07:23:19;;;;;;;12.15;10.95;;;16.40;53.20;;;;;;5051396;28;20844;-62
2022/01/16 07:25:45;;;;;;;10.52;9.43;;;16.50;53.20;;;;;;5053190;28;20298;-62
2022/01/16 07:28:10;;;;;;;12.10;10.85;;;16.50;53.00;;;;;;5053081;28;20233;-62
2022/01/16 07:30:36;;;;;;;11.63;10.52;;;16.60;52.90;;;;;;5051860;28;20657;-60
2022/01/16 07:33:05;;;;;;;12.95;10.70;;;16.70;52.80;;;;;;5053088;28;20210;-62
2022/01/16 07:35:31;;;;;;;10.65;9.65;;;16.80;52.70;;;;;;5052660;28;20263;-61
2022/01/16 07:37:57;;;;;;;11.18;10.07;;;17.00;52.60;;;;;;5052262;28;20179;-61
2022/01/16 07:40:23;;;;;;;11.07;9.98;;;17.10;52.30;;;;;;5052359;28;20183;-62
2022/01/16 07:42:49;;;;;;;11.35;10.25;;;17.20;52.20;;;;;;5052062;28;20179;-61
2022/01/16 07:45:14;;;;;;;10.63;9.55;;;17.20;52.10;;;;;;5052816;28;20167;-63
2022/01/16 07:47:40;;;;;;;10.73;9.65;;;17.30;52.10;;;;;;5052372;28;20182;-61
2022/01/16 07:50:06;;;;;;;9.75;8.85;;;17.30;52.10;;;;;;5051886;28;21038;-63
2022/01/16 07:52:32;;;;;;;10.15;9.15;;;17.50;52.00;;;;;;5052410;28;20179;-62
2022/01/16 07:54:57;;;;;;;10.52;9.48;;;17.60;51.80;;;;;;5052687;28;20180;-63
2022/01/16 07:57:23;;;;;;;10.50;9.50;;;17.80;51.60;;;;;;5051799;28;20175;-61
2022/01/16 07:59:50;;;;;;;10.95;9.85;;;17.90;51.30;;;;;;5052617;28;20182;-61
2022/01/16 08:02:16;;;;;;;10.65;9.35;;;18.10;51.00;;;;;;5052475;28;20534;-61
2022/01/16 08:04:41;;;;;;;10.57;9.57;;;18.30;50.70;;;;;;5051500;28;20313;-70
2022/01/16 08:07:09;;;;;;;10.27;9.00;;;18.30;50.70;;;;;;5052234;28;20163;-69
2022/01/16 08:09:36;;;;;;;9.57;8.52;;;18.40;50.60;;;;;;5051813;28;20186;-69
2022/01/16 08:12:01;;;;;;;10.60;9.50;;;18.30;50.70;;;;;;5051379;28;20593;-68
2022/01/16 08:14:27;;;;;;;10.25;9.10;;;18.30;50.90;;;;;;5051761;28;20235;-68
2022/01/16 08:16:56;;;;;;;9.75;8.70;;;18.30;51.00;;;;;;5052317;28;20214;-69
2022/01/16 08:19:22;;;;;;;9.48;8.57;;;18.30;50.90;;;;;;5050765;28;20657;-65
2022/01/16 08:21:47;;;;;;;10.20;9.20;;;18.30;51.10;;;;;;5051574;28;20183;-67
2022/01/16 08:24:12;;;;;;;10.07;9.02;;;18.30;51.40;;;;;;5051544;28;20198;-66
2022/01/16 08:26:38;;;;;;;10.25;9.25;;;18.30;51.50;;;;;;5050272;28;20653;-67
2022/01/16 08:29:04;;;;;;;10.93;9.75;;;18.40;51.50;;;;;;5051390;28;20178;-68
2022/01/16 08:31:29;;;;;;;10.10;9.00;;;18.30;51.50;;;;;;5051686;28;20206;-64
2022/01/16 08:33:55;;;;;;;11.10;8.82;;;18.30;51.60;;;;;;5052675;28;20750;-82
2022/01/16 08:36:21;;;;;;;12.18;9.30;;;18.40;51.70;;;;;;5051763;28;20171;-68
2022/01/16 08:38:46;;;;;;;8.80;7.90;;;18.40;51.70;;;;;;5051310;28;20171;-69
2022/01/16 08:41:12;;;;;;;11.45;9.18;;;18.50;51.80;;;;;;5050205;28;20750;-70
2022/01/16 08:43:37;;;;;;;10.52;9.45;;;18.40;51.80;;;;;;5050700;28;20525;-69
2022/01/16 08:46:03;;;;;;;10.30;8.15;;;18.40;51.90;;;;;;5050403;28;20547;-69
2022/01/16 08:48:28;;;;;;;9.80;8.68;;;18.40;51.90;;;;;;5050655;28;20711;-69
2022/01/16 08:50:54;;;;;;;10.48;9.25;;;18.40;52.00;;;;;;5050344;28;20182;-69
2022/01/16 08:53:20;;;;;;;9.88;8.05;;;18.50;52.10;;;;;;5049930;28;20202;-69
2022/01/16 08:55:45;;;;;;;10.02;8.45;;;18.50;52.00;;;;;;5050633;28;20232;-67
2022/01/16 08:58:11;;;;;;;10.60;8.85;;;18.50;52.00;;;;;;5051553;28;20171;-69
2022/01/16 09:00:36;;;;;;;8.95;8.10;;;18.40;52.10;;;;;;5050269;28;20191;-72
2022/01/16 09:03:02;;;;;;;8.95;8.02;;;18.40;52.20;;;;;;5051656;28;20178;-69
2022/01/16 09:05:27;;;;;;;9.13;8.23;;;18.40;52.30;;;;;;5051193;28;20210;-69
2022/01/16 09:07:53;;;;;;;9.82;7.60;;;18.40;52.30;;;;;;5050551;28;20202;-67
2022/01/16 09:10:19;;;;;;;8.98;8.05;;;18.40;52.30;;;;;;5051489;28;20324;-68
2022/01/16 09:12:44;;;;;;;9.60;8.15;;;18.40;52.40;;;;;;5051153;28;20206;-76
2022/01/16 09:15:10;;;;;;;8.70;7.85;;;18.40;52.60;;;;;;5050618;28;20186;-74
2022/01/16 09:17:36;;;;;;;8.65;7.75;;;18.30;52.60;;;;;;5059666;28;20626;-79
2022/01/16 09:20:03;;;;;;;10.15;8.05;;;18.20;52.60;;;;;;5058844;28;20175;-76
2022/01/16 09:22:32;;;;;;;8.88;7.97;;;18.20;52.80;;;;;;5070693;28;20181;-76
2022/01/16 09:24:58;;;;;;;8.57;7.78;;;18.10;53.00;;;;;;5058560;28;20179;-76
2022/01/16 09:27:23;;;;;;;10.18;7.72;;;18.00;53.10;;;;;;5051213;28;20643;-78
2022/01/16 09:29:49;;;;;;;10.32;8.57;;;18.00;53.30;;;;;;5050993;28;20187;-82
2022/01/16 09:32:16;;;;;;;7.90;7.10;;;18.00;53.40;;;;;;5053910;28;20179;-75
2022/01/16 09:34:42;;;;;;;9.40;7.60;;;17.90;53.40;;;;;;5071857;28;20193;-82
2022/01/16 09:37:09;;;;;;;8.48;7.68;;;17.90;53.40;;;;;;5071131;28;20183;-79
2022/01/16 09:39:36;;;;;;;9.38;8.27;;;17.90;53.50;;;;;;5071183;28;20183;-79
2022/01/16 09:42:03;;;;;;;9.18;7.20;;;18.00;53.60;;;;;;5067962;28;20177;-75
2022/01/16 09:44:29;;;;;;;9.25;8.15;;;18.00;53.40;;;;;;5033433;28;20190;-71
2022/01/16 09:46:54;;;;;;;7.82;7.13;;;18.10;53.50;;;;;;5053206;28;20183;-69
2022/01/16 09:49:20;;;;;;;8.75;7.43;;;18.10;53.40;;;;;;5056510;28;20219;-70
2022/01/16 09:51:45;;;;;;;8.07;7.28;;;18.10;53.30;;;;;;5074417;28;20699;-70
2022/01/16 09:54:14;;;;;;;8.98;7.68;;;18.10;53.20;;;;;;5074551;28;20733;-69
2022/01/16 09:56:39;;;;;;;8.63;7.40;;;18.10;53.10;;;;;;5073887;28;20167;-71
2022/01/16 09:59:04;;;;;;;8.02;7.20;;;18.10;53.10;;;;;;5059995;28;20175;-67
2022/01/16 10:01:30;;;;;;;8.43;7.03;;;18.10;53.00;;;;;;5054061;28;20575;-67
2022/01/16 10:03:56;;;;;;;8.13;7.25;;;18.10;53.00;;;;;;5053176;28;20227;-67
2022/01/16 10:06:22;;;;;;;7.90;7.10;;;18.10;53.10;;;;;;5053906;28;20184;-67
2022/01/16 10:08:51;;;;;;;7.95;7.25;;;18.10;53.00;;;;;;5054242;28;20708;-68
2022/01/16 10:11:37;;;;;;;8.30;7.50;;;18.10;53.10;;;;;;5053381;28;20633;-67
2022/01/16 10:14:24;;;;;;;7.18;6.47;;;18.10;53.10;;;;;;5054042;28;20256;-67
2022/01/16 10:16:49;;;;;;;7.80;6.95;;;18.00;53.10;;;;;;5054006;28;20194;-68
2022/01/16 10:19:25;;;;;;;8.30;7.50;;;18.00;53.30;;;;;;5053318;28;20513;-65
2022/01/16 10:21:51;;;;;;;9.23;7.28;;;18.00;53.30;;;;;;5054301;28;20240;-70
2022/01/16 10:24:16;;;;;;;8.00;7.18;;;18.00;53.30;;;;;;5054100;28;20650;-69
2022/01/16 10:26:42;;;;;;;11.15;7.57;;;18.00;53.30;;;;;;5053351;28;20179;-67
2022/01/16 10:29:08;;;;;;;7.63;6.80;;;18.10;53.40;;;;;;5054027;28;20191;-68
2022/01/16 10:31:36;;;;;;;9.07;6.72;;;18.10;53.30;;;;;;5051712;28;20175;-71
2022/01/16 10:34:01;;;;;;;7.55;6.80;;;18.20;53.20;;;;;;5054842;28;20206;-70
2022/01/16 10:36:35;;;;;;;11.98;6.63;;;18.20;53.10;;;;;;5052189;28;20184;-68
2022/01/16 10:39:11;;;;;;;8.27;6.72;;;18.40;53.00;;;;;;5053242;28;20182;-67
2022/01/16 10:41:36;;;;;;;7.88;6.03;;;18.50;53.00;;;;;;5053068;28;20175;-67
2022/01/16 10:44:02;;;;;;;7.53;6.55;;;18.50;53.00;;;;;;5053903;28;20248;-69
2022/01/16 10:46:27;;;;;;;7.13;6.43;;;18.60;52.90;;;;;;5052819;28;20734;-70
2022/01/16 10:49:12;;;;;;;6.50;5.78;;;18.60;52.80;;;;;;5053540;28;20317;-71
2022/01/16 10:51:38;;;;;;;8.40;6.55;;;18.70;52.80;;;;;;5053386;28;20357;-68
2022/01/16 10:54:31;;;;;;;6.13;5.57;;;18.70;52.70;;;;;;5052944;28;20265;-68
2022/01/16 10:56:56;;;;;;;8.50;6.60;;;18.80;52.60;;;;;;5053269;28;20265;-69
2022/01/16 10:59:22;;;;;;;6.60;6.00;;;18.80;52.60;;;;;;5053249;28;20175;-69
2022/01/16 11:02:10;;;;;;;6.43;5.80;;;18.80;52.50;;;;;;5052953;28;20221;-68
2022/01/16 11:04:35;;;;;;;7.70;6.25;;;18.90;52.50;;;;;;5053226;28;20254;-69
2022/01/16 11:07:02;;;;;;;7.72;6.75;;;18.90;52.60;;;;;;5052557;28;20982;-69
2022/01/16 11:09:28;;;;;;;7.10;6.20;;;18.90;52.50;;;;;;5052970;28;20187;-69
2022/01/16 11:11:59;;;;;;;7.75;6.13;;;18.90;52.50;;;;;;5053505;28;20510;-70
2022/01/16 11:14:26;;;;;;;7.03;6.05;;;18.90;52.50;;;;;;5052300;28;20262;-69
2022/01/16 11:16:51;;;;;;;8.80;5.53;;;18.90;52.50;;;;;;5053383;28;20181;-70
2022/01/16 11:19:19;;;;;;;8.45;5.97;;;18.90;52.60;;;;;;5035470;28;20171;-70
2022/01/16 11:21:45;;;;;;;7.72;6.70;;;18.90;52.60;;;;;;5052153;28;20178;-68
2022/01/16 11:26:42;;;;;;;8.10;5.70;;;18.90;52.60;;;;;;5073064;28;20212;-68
2022/01/16 11:29:07;;;;;;;6.72;6.13;;;18.80;52.70;;;;;;5054143;28;20265;-69
2022/01/16 11:31:33;;;;;;;7.05;6.35;;;18.70;52.70;;;;;;5054770;28;20209;-71
2022/01/16 11:33:58;;;;;;;6.30;5.70;;;18.70;52.80;;;;;;5072779;28;20301;-71
2022/01/16 11:36:26;;;;;;;7.05;6.30;;;18.60;52.90;;;;;;5071525;28;20582;-73
2022/01/16 11:38:57;;;;;;;6.60;6.00;;;18.60;53.00;;;;;;5072958;28;20257;-70
2022/01/16 11:41:34;;;;;;;6.68;6.07;;;18.60;53.10;;;;;;5055171;28;20178;-69
2022/01/16 11:44:02;;;;;;;6.90;5.72;;;18.60;53.10;;;;;;5072138;28;20163;-70
2022/01/16 11:46:28;;;;;;;6.43;5.78;;;18.60;53.20;;;;;;5072183;28;20245;-69
2022/01/16 11:49:01;;;;;;;6.43;5.82;;;18.60;53.20;;;;;;5071731;28;20253;-69
2022/01/16 11:51:51;;;;;;;6.43;5.82;;;18.60;53.20;;;;;;5072166;28;20190;-68
2022/01/16 11:54:26;;;;;;;6.30;5.68;;;18.70;53.20;;;;;;5072546;28;20222;-69
2022/01/16 11:56:57;;;;;;;6.47;5.82;;;18.70;53.10;;;;;;5071393;28;20630;-69
2022/01/16 11:59:39;;;;;;;6.93;6.22;;;18.70;53.10;;;;;;5072011;28;20178;-69
2022/01/16 12:02:08;;;;;;;7.30;6.00;;;18.70;53.10;;;;;;5072436;28;20253;-68
2022/01/16 12:04:33;;;;;;;5.80;5.18;;;18.70;53.10;;;;;;5071286;28;20240;-69
2022/01/16 12:07:21;;;;;;;7.25;5.57;;;18.70;53.10;;;;;;5072458;28;20183;-64
2022/01/16 12:09:49;;;;;;;6.95;6.22;;;18.70;53.10;;;;;;5071502;28;20601;-64
2022/01/16 12:12:17;;;;;;;6.50;5.80;;;18.70;53.30;;;;;;5071673;28;20186;-63
2022/01/16 12:14:52;;;;;;;8.02;6.63;;;18.70;53.30;;;;;;5071684;28;20797;-64
2022/01/16 12:17:53;;;;;;;6.90;6.22;;;18.70;53.30;;;;;;5071782;28;20235;-65
2022/01/16 12:20:20;;;;;;;10.40;7.30;;;18.60;53.20;;;;;;5071684;28;20645;-64
2022/01/16 12:22:48;;;;;;;9.68;7.47;;;18.50;53.20;;;;;;5072170;28;20209;-68
2022/01/16 12:25:24;;;;;;;8.82;7.90;;;18.40;53.20;;;;;;5053966;28;20215;-70
2022/01/16 12:27:51;;;;;;;8.52;7.43;;;18.30;53.30;;;;;;5052022;28;20171;-70
2022/01/16 12:30:32;;;;;;;7.93;7.13;;;18.40;53.40;;;;;;5052144;28;20187;-72
2022/01/16 12:33:29;;;;;;;8.13;6.75;;;18.40;53.30;;;;;;5050915;28;20553;-71
2022/01/16 12:35:55;;;;;;;8.10;6.82;;;18.40;53.30;;;;;;5047215;28;20266;-72
2022/01/16 12:38:24;;;;;;;8.45;7.57;;;18.40;53.30;;;;;;5050657;28;20258;-66
2022/01/16 12:40:52;;;;;;;9.90;7.88;;;18.40;53.30;;;;;;5051697;28;20269;-72
2022/01/16 12:43:27;;;;;;;9.10;7.60;;;18.50;53.40;;;;;;5051960;28;20182;-68
2022/01/16 12:45:52;;;;;;;9.90;7.68;;;18.50;53.30;;;;;;5051171;28;20272;-69
2022/01/16 12:48:18;;;;;;;9.63;7.63;;;18.50;53.30;;;;;;5051507;28;20258;-70
2022/01/16 12:50:43;;;;;;;9.93;7.45;;;18.50;53.40;;;;;;5051323;28;20198;-71
2022/01/16 12:53:11;;;;;;;9.35;7.05;;;18.60;53.30;;;;;;5050636;28;20211;-70
2022/01/16 12:55:37;;;;;;;9.32;7.60;;;18.60;53.10;;;;;;5051093;28;20262;-72
2022/01/16 12:58:21;;;;;;;10.25;7.72;;;18.60;53.10;;;;;;5051731;28;20266;-69
2022/01/16 13:01:04;;;;;;;10.02;7.32;;;18.70;53.10;;;;;;5050939;28;20248;-72
2022/01/16 13:03:30;;;;;;;8.10;7.22;;;18.60;53.10;;;;;;5051277;28;20179;-72
2022/01/16 13:06:15;;;;;;;8.73;6.47;;;18.60;53.30;;;;;;5051342;28;20175;-68
2022/01/16 13:08:54;;;;;;;8.70;7.53;;;18.60;53.30;;;;;;5050661;28;20227;-68
2022/01/16 13:11:19;;;;;;;7.88;7.00;;;18.60;53.20;;;;;;5051111;28;20613;-69
2022/01/16 13:13:46;;;;;;;8.98;7.30;;;18.60;53.30;;;;;;5050731;28;20206;-67
2022/01/16 13:16:29;;;;;;;9.10;7.70;;;18.50;53.40;;;;;;5050082;28;20313;-69
2022/01/16 13:19:12;;;;;;;9.68;7.65;;;18.50;53.40;;;;;;5051764;28;20179;-68
2022/01/16 13:22:03;;;;;;;10.63;6.85;;;18.50;53.50;;;;;;5051974;28;20182;-67
2022/01/16 13:24:40;;;;;;;8.55;6.72;;;18.50;53.50;;;;;;5065886;28;20174;-68
2022/01/16 13:27:08;;;;;;;8.43;7.28;;;18.50;53.50;;;;;;5075395;28;20177;-69
2022/01/16 13:29:35;;;;;;;7.85;7.05;;;18.60;53.60;;;;;;5074178;28;20642;-73
2022/01/16 13:32:09;;;;;;;10.15;7.40;;;18.60;53.60;;;;;;5074987;28;20640;-73